sensor_id;sensor_type;location;lat;lon;timestamp;P1;durP1;ratioP1;P2;durP2;ratioP2
8665;SDS011;4370;48.916;8.380;2024-01-30T00:01:51;8.10;;;5.87;;
8665;SDS011;4370;48.916;8.380;2024-01-30T00:04:17;7.60;;;5.30;;
8665;SDS011;4370;48.916;8.380;2024-01-30T00:06:43;8.20;;;5.90;;
8665;SDS011;4370;48.916;8.380;2024-01-30T00:09:09;8.23;;;5.87;;
8665;SDS011;4370;48.916;8.380;2024-01-30T00:11:36;11.60;;;6.30;;
8665;SDS011;4370;48.916;8.380;2024-01-30T00:14:02;8.47;;;5.77;;
8665;SDS011;4370;48.916;8.380;2024-01-30T00:16:28;6.57;;;5.30;;
8665;SDS011;4370;48.916;8.380;2024-01-30T00:18:54;7.33;;;5.93;;
8665;SDS011;4370;48.916;8.380;2024-01-30T00:21:20;7.40;;;5.90;;
8665;SDS011;4370;48.916;8.380;2024-01-30T00:23:46;8.30;;;5.63;;
8665;SDS011;4370;48.916;8.380;2024-01-30T00:26:13;8.27;;;6.33;;
8665;SDS011;4370;48.916;8.380;2024-01-30T00:28:42;8.23;;;6.13;;
8665;SDS011;4370;48.916;8.380;2024-01-30T00:31:08;10.83;;;7.27;;
8665;SDS011;4370;48.916;8.380;2024-01-30T00:33:37;9.60;;;6.53;;
8665;SDS011;4370;48.916;8.380;2024-01-30T00:36:03;8.67;;;5.80;;
8665;SDS011;4370;48.916;8.380;2024-01-30T00:38:29;10.50;;;6.70;;
8665;SDS011;4370;48.916;8.380;2024-01-30T00:40:55;9.03;;;6.60;;
8665;SDS011;4370;48.916;8.380;2024-01-30T00:43:21;9.07;;;6.07;;
8665;SDS011;4370;48.916;8.380;2024-01-30T00:45:49;11.40;;;7.30;;
8665;SDS011;4370;48.916;8.380;2024-01-30T00:48:17;9.33;;;6.20;;
8665;SDS011;4370;48.916;8.380;2024-01-30T00:50:43;9.70;;;6.30;;
8665;SDS011;4370;48.916;8.380;2024-01-30T00:53:09;7.07;;;5.63;;
8665;SDS011;4370;48.916;8.380;2024-01-30T00:55:35;8.17;;;6.13;;
8665;SDS011;4370;48.916;8.380;2024-01-30T00:58:01;12.80;;;6.23;;
8665;SDS011;4370;48.916;8.380;2024-01-30T01:00:27;8.93;;;5.83;;
8665;SDS011;4370;48.916;8.380;2024-01-30T01:02:54;7.77;;;5.80;;
8665;SDS011;4370;48.916;8.380;2024-01-30T01:05:20;6.60;;;5.13;;
8665;SDS011;4370;48.916;8.380;2024-01-30T01:07:46;9.63;;;5.43;;
8665;SDS011;4370;48.916;8.380;2024-01-30T01:10:13;9.77;;;5.77;;
8665;SDS011;4370;48.916;8.380;2024-01-30T01:12:39;8.03;;;5.43;;
8665;SDS011;4370;48.916;8.380;2024-01-30T01:15:05;7.07;;;5.47;;
8665;SDS011;4370;48.916;8.380;2024-01-30T01:17:34;9.33;;;5.73;;
8665;SDS011;4370;48.916;8.380;2024-01-30T01:20:00;9.53;;;6.70;;
8665;SDS011;4370;48.916;8.380;2024-01-30T01:22:26;8.60;;;6.10;;
8665;SDS011;4370;48.916;8.380;2024-01-30T01:24:52;9.67;;;6.80;;
8665;SDS011;4370;48.916;8.380;2024-01-30T01:27:18;10.47;;;6.80;;
8665;SDS011;4370;48.916;8.380;2024-01-30T01:29:44;8.97;;;6.70;;
8665;SDS011;4370;48.916;8.380;2024-01-30T01:32:10;8.83;;;6.00;;
8665;SDS011;4370;48.916;8.380;2024-01-30T01:34:36;7.20;;;5.87;;
8665;SDS011;4370;48.916;8.380;2024-01-30T01:37:04;10.67;;;6.40;;
8665;SDS011;4370;48.916;8.380;2024-01-30T01:39:30;7.90;;;5.67;;
8665;SDS011;4370;48.916;8.380;2024-01-30T01:41:56;6.97;;;5.33;;
8665;SDS011;4370;48.916;8.380;2024-01-30T01:44:22;8.03;;;5.90;;
8665;SDS011;4370;48.916;8.380;2024-01-30T01:46:48;7.23;;;5.13;;
8665;SDS011;4370;48.916;8.380;2024-01-30T01:49:14;7.20;;;5.27;;
8665;SDS011;4370;48.916;8.380;2024-01-30T01:51:40;7.13;;;5.60;;
8665;SDS011;4370;48.916;8.380;2024-01-30T01:54:06;10.63;;;6.20;;
8665;SDS011;4370;48.916;8.380;2024-01-30T01:56:33;11.17;;;6.17;;
8665;SDS011;4370;48.916;8.380;2024-01-30T01:59:00;9.27;;;6.10;;
8665;SDS011;4370;48.916;8.380;2024-01-30T02:01:28;8.00;;;6.10;;
8665;SDS011;4370;48.916;8.380;2024-01-30T02:03:55;9.03;;;6.07;;
8665;SDS011;4370;48.916;8.380;2024-01-30T02:06:20;9.30;;;6.60;;
8665;SDS011;4370;48.916;8.380;2024-01-30T02:08:46;7.30;;;5.33;;
8665;SDS011;4370;48.916;8.380;2024-01-30T02:11:12;9.50;;;5.60;;
8665;SDS011;4370;48.916;8.380;2024-01-30T02:13:38;7.60;;;5.37;;
8665;SDS011;4370;48.916;8.380;2024-01-30T02:16:04;6.60;;;5.00;;
8665;SDS011;4370;48.916;8.380;2024-01-30T02:18:30;7.73;;;5.23;;
8665;SDS011;4370;48.916;8.380;2024-01-30T02:20:57;7.87;;;5.20;;
8665;SDS011;4370;48.916;8.380;2024-01-30T02:23:26;9.50;;;5.33;;
8665;SDS011;4370;48.916;8.380;2024-01-30T02:25:52;8.87;;;4.93;;
8665;SDS011;4370;48.916;8.380;2024-01-30T02:28:19;12.53;;;5.90;;
8665;SDS011;4370;48.916;8.380;2024-01-30T02:30:45;8.23;;;4.97;;
8665;SDS011;4370;48.916;8.380;2024-01-30T02:33:12;11.40;;;5.33;;
8665;SDS011;4370;48.916;8.380;2024-01-30T02:35:38;7.07;;;5.73;;
8665;SDS011;4370;48.916;8.380;2024-01-30T02:38:04;10.60;;;5.77;;
8665;SDS011;4370;48.916;8.380;2024-01-30T02:40:30;7.90;;;5.33;;
8665;SDS011;4370;48.916;8.380;2024-01-30T02:42:57;8.53;;;4.90;;
8665;SDS011;4370;48.916;8.380;2024-01-30T02:45:23;6.50;;;4.90;;
8665;SDS011;4370;48.916;8.380;2024-01-30T02:47:49;5.87;;;4.57;;
8665;SDS011;4370;48.916;8.380;2024-01-30T02:50:15;7.33;;;4.73;;
8665;SDS011;4370;48.916;8.380;2024-01-30T02:52:41;7.87;;;4.77;;
8665;SDS011;4370;48.916;8.380;2024-01-30T02:55:10;7.07;;;4.80;;
8665;SDS011;4370;48.916;8.380;2024-01-30T02:57:37;9.87;;;5.37;;
8665;SDS011;4370;48.916;8.380;2024-01-30T03:00:03;6.40;;;4.70;;
8665;SDS011;4370;48.916;8.380;2024-01-30T03:02:31;7.43;;;5.20;;
8665;SDS011;4370;48.916;8.380;2024-01-30T03:04:57;6.33;;;4.10;;
8665;SDS011;4370;48.916;8.380;2024-01-30T03:07:22;9.10;;;4.93;;
8665;SDS011;4370;48.916;8.380;2024-01-30T03:09:48;6.03;;;4.30;;
8665;SDS011;4370;48.916;8.380;2024-01-30T03:12:14;7.37;;;4.60;;
8665;SDS011;4370;48.916;8.380;2024-01-30T03:14:40;8.30;;;5.07;;
8665;SDS011;4370;48.916;8.380;2024-01-30T03:17:06;7.47;;;4.60;;
8665;SDS011;4370;48.916;8.380;2024-01-30T03:19:32;5.63;;;4.60;;
8665;SDS011;4370;48.916;8.380;2024-01-30T03:21:58;7.37;;;4.60;;
8665;SDS011;4370;48.916;8.380;2024-01-30T03:24:25;10.50;;;4.90;;
8665;SDS011;4370;48.916;8.380;2024-01-30T03:26:51;6.63;;;4.47;;
8665;SDS011;4370;48.916;8.380;2024-01-30T03:29:17;7.77;;;4.40;;
8665;SDS011;4370;48.916;8.380;2024-01-30T03:31:43;5.27;;;4.33;;
8665;SDS011;4370;48.916;8.380;2024-01-30T03:34:09;7.77;;;4.60;;
8665;SDS011;4370;48.916;8.380;2024-01-30T03:36:35;7.20;;;5.00;;
8665;SDS011;4370;48.916;8.380;2024-01-30T03:39:00;7.57;;;4.90;;
8665;SDS011;4370;48.916;8.380;2024-01-30T03:41:28;7.23;;;4.63;;
8665;SDS011;4370;48.916;8.380;2024-01-30T03:43:55;7.70;;;5.20;;
8665;SDS011;4370;48.916;8.380;2024-01-30T03:46:21;7.07;;;5.00;;
8665;SDS011;4370;48.916;8.380;2024-01-30T03:48:46;7.93;;;4.40;;
8665;SDS011;4370;48.916;8.380;2024-01-30T03:51:12;6.50;;;4.73;;
8665;SDS011;4370;48.916;8.380;2024-01-30T03:53:40;8.07;;;5.60;;
8665;SDS011;4370;48.916;8.380;2024-01-30T03:56:06;9.67;;;5.73;;
8665;SDS011;4370;48.916;8.380;2024-01-30T03:58:32;9.80;;;6.30;;
8665;SDS011;4370;48.916;8.380;2024-01-30T04:00:58;8.17;;;5.23;;
8665;SDS011;4370;48.916;8.380;2024-01-30T04:03:24;9.27;;;5.13;;
8665;SDS011;4370;48.916;8.380;2024-01-30T04:05:51;8.03;;;4.93;;
8665;SDS011;4370;48.916;8.380;2024-01-30T04:08:17;8.97;;;5.50;;
8665;SDS011;4370;48.916;8.380;2024-01-30T04:10:43;6.87;;;5.07;;
8665;SDS011;4370;48.916;8.380;2024-01-30T04:13:09;8.97;;;5.23;;
8665;SDS011;4370;48.916;8.380;2024-01-30T04:15:35;10.50;;;4.40;;
8665;SDS011;4370;48.916;8.380;2024-01-30T04:18:01;7.47;;;5.10;;
8665;SDS011;4370;48.916;8.380;2024-01-30T04:20:29;7.17;;;5.33;;
8665;SDS011;4370;48.916;8.380;2024-01-30T04:22:55;10.83;;;5.20;;
8665;SDS011;4370;48.916;8.380;2024-01-30T04:25:21;8.13;;;6.13;;
8665;SDS011;4370;48.916;8.380;2024-01-30T04:27:48;14.87;;;7.33;;
8665;SDS011;4370;48.916;8.380;2024-01-30T04:30:14;10.03;;;6.27;;
8665;SDS011;4370;48.916;8.380;2024-01-30T04:32:40;8.13;;;5.40;;
8665;SDS011;4370;48.916;8.380;2024-01-30T04:35:06;6.60;;;4.80;;
8665;SDS011;4370;48.916;8.380;2024-01-30T04:37:32;10.10;;;5.77;;
8665;SDS011;4370;48.916;8.380;2024-01-30T04:39:58;8.53;;;5.00;;
8665;SDS011;4370;48.916;8.380;2024-01-30T04:42:24;9.57;;;5.50;;
8665;SDS011;4370;48.916;8.380;2024-01-30T04:44:50;8.93;;;5.27;;
8665;SDS011;4370;48.916;8.380;2024-01-30T04:47:16;7.67;;;5.00;;
8665;SDS011;4370;48.916;8.380;2024-01-30T04:49:42;8.83;;;5.40;;
8665;SDS011;4370;48.916;8.380;2024-01-30T04:52:08;12.83;;;5.63;;
8665;SDS011;4370;48.916;8.380;2024-01-30T04:54:34;8.43;;;4.90;;
8665;SDS011;4370;48.916;8.380;2024-01-30T04:57:01;7.63;;;4.63;;
8665;SDS011;4370;48.916;8.380;2024-01-30T04:59:27;8.20;;;5.43;;
8665;SDS011;4370;48.916;8.380;2024-01-30T05:01:54;8.80;;;5.07;;
8665;SDS011;4370;48.916;8.380;2024-01-30T05:04:20;6.57;;;4.63;;
8665;SDS011;4370;48.916;8.380;2024-01-30T05:06:47;9.70;;;5.00;;
8665;SDS011;4370;48.916;8.380;2024-01-30T05:09:13;7.10;;;4.73;;
8665;SDS011;4370;48.916;8.380;2024-01-30T05:11:39;8.97;;;4.87;;
8665;SDS011;4370;48.916;8.380;2024-01-30T05:14:05;8.30;;;4.93;;
8665;SDS011;4370;48.916;8.380;2024-01-30T05:16:31;5.97;;;4.40;;
8665;SDS011;4370;48.916;8.380;2024-01-30T05:18:58;8.00;;;5.50;;
8665;SDS011;4370;48.916;8.380;2024-01-30T05:21:24;6.53;;;4.83;;
8665;SDS011;4370;48.916;8.380;2024-01-30T05:23:50;7.23;;;4.80;;
8665;SDS011;4370;48.916;8.380;2024-01-30T05:26:16;5.00;;;4.23;;
8665;SDS011;4370;48.916;8.380;2024-01-30T05:28:42;4.70;;;4.10;;
8665;SDS011;4370;48.916;8.380;2024-01-30T05:31:09;7.53;;;4.50;;
8665;SDS011;4370;48.916;8.380;2024-01-30T05:33:35;7.13;;;4.80;;
8665;SDS011;4370;48.916;8.380;2024-01-30T05:36:02;10.40;;;4.67;;
8665;SDS011;4370;48.916;8.380;2024-01-30T05:38:28;5.57;;;4.50;;
8665;SDS011;4370;48.916;8.380;2024-01-30T05:40:54;6.00;;;4.53;;
8665;SDS011;4370;48.916;8.380;2024-01-30T05:43:20;6.70;;;5.13;;
8665;SDS011;4370;48.916;8.380;2024-01-30T05:45:46;9.20;;;5.23;;
8665;SDS011;4370;48.916;8.380;2024-01-30T05:48:12;7.20;;;4.50;;
8665;SDS011;4370;48.916;8.380;2024-01-30T05:50:38;8.00;;;5.23;;
8665;SDS011;4370;48.916;8.380;2024-01-30T05:53:04;7.73;;;4.97;;
8665;SDS011;4370;48.916;8.380;2024-01-30T05:55:30;9.87;;;5.90;;
8665;SDS011;4370;48.916;8.380;2024-01-30T05:57:55;12.10;;;5.77;;
8665;SDS011;4370;48.916;8.380;2024-01-30T06:00:21;8.90;;;5.40;;
8665;SDS011;4370;48.916;8.380;2024-01-30T06:02:47;11.33;;;7.13;;
8665;SDS011;4370;48.916;8.380;2024-01-30T06:05:13;11.50;;;7.10;;
8665;SDS011;4370;48.916;8.380;2024-01-30T06:07:39;8.93;;;5.90;;
8665;SDS011;4370;48.916;8.380;2024-01-30T06:10:05;7.60;;;5.20;;
8665;SDS011;4370;48.916;8.380;2024-01-30T06:12:32;9.17;;;5.90;;
8665;SDS011;4370;48.916;8.380;2024-01-30T06:14:58;6.37;;;4.80;;
8665;SDS011;4370;48.916;8.380;2024-01-30T06:17:24;7.93;;;4.90;;
8665;SDS011;4370;48.916;8.380;2024-01-30T06:19:49;5.53;;;3.90;;
8665;SDS011;4370;48.916;8.380;2024-01-30T06:22:16;7.10;;;4.67;;
8665;SDS011;4370;48.916;8.380;2024-01-30T06:24:42;6.03;;;3.87;;
8665;SDS011;4370;48.916;8.380;2024-01-30T06:27:10;7.93;;;4.43;;
8665;SDS011;4370;48.916;8.380;2024-01-30T06:29:35;10.03;;;5.47;;
8665;SDS011;4370;48.916;8.380;2024-01-30T06:32:02;9.73;;;5.53;;
8665;SDS011;4370;48.916;8.380;2024-01-30T06:34:28;8.23;;;4.67;;
8665;SDS011;4370;48.916;8.380;2024-01-30T06:36:53;8.73;;;4.40;;
8665;SDS011;4370;48.916;8.380;2024-01-30T06:39:19;7.27;;;4.67;;
8665;SDS011;4370;48.916;8.380;2024-01-30T06:41:45;11.50;;;6.33;;
8665;SDS011;4370;48.916;8.380;2024-01-30T06:44:11;9.00;;;5.63;;
8665;SDS011;4370;48.916;8.380;2024-01-30T06:46:38;8.60;;;5.20;;
8665;SDS011;4370;48.916;8.380;2024-01-30T06:49:04;6.43;;;4.37;;
8665;SDS011;4370;48.916;8.380;2024-01-30T06:51:30;7.83;;;5.00;;
8665;SDS011;4370;48.916;8.380;2024-01-30T06:53:56;9.47;;;6.30;;
8665;SDS011;4370;48.916;8.380;2024-01-30T06:56:22;16.90;;;8.60;;
8665;SDS011;4370;48.916;8.380;2024-01-30T06:58:48;11.97;;;6.13;;
8665;SDS011;4370;48.916;8.380;2024-01-30T07:01:14;10.40;;;5.87;;
8665;SDS011;4370;48.916;8.380;2024-01-30T07:03:41;10.50;;;6.10;;
8665;SDS011;4370;48.916;8.380;2024-01-30T07:06:07;10.17;;;5.83;;
8665;SDS011;4370;48.916;8.380;2024-01-30T07:08:33;15.83;;;8.20;;
8665;SDS011;4370;48.916;8.380;2024-01-30T07:10:59;10.90;;;6.20;;
8665;SDS011;4370;48.916;8.380;2024-01-30T07:13:25;9.23;;;5.67;;
8665;SDS011;4370;48.916;8.380;2024-01-30T07:15:51;9.87;;;6.10;;
8665;SDS011;4370;48.916;8.380;2024-01-30T07:18:17;10.03;;;6.60;;
8665;SDS011;4370;48.916;8.380;2024-01-30T07:20:43;17.43;;;8.37;;
8665;SDS011;4370;48.916;8.380;2024-01-30T07:23:14;13.83;;;7.30;;
8665;SDS011;4370;48.916;8.380;2024-01-30T07:25:43;14.27;;;7.03;;
8665;SDS011;4370;48.916;8.380;2024-01-30T07:28:09;9.93;;;6.13;;
8665;SDS011;4370;48.916;8.380;2024-01-30T07:30:36;13.20;;;7.70;;
8665;SDS011;4370;48.916;8.380;2024-01-30T07:33:02;11.97;;;5.93;;
8665;SDS011;4370;48.916;8.380;2024-01-30T07:35:28;11.70;;;6.67;;
8665;SDS011;4370;48.916;8.380;2024-01-30T07:37:54;10.40;;;5.97;;
8665;SDS011;4370;48.916;8.380;2024-01-30T07:40:21;8.63;;;5.70;;
8665;SDS011;4370;48.916;8.380;2024-01-30T07:42:48;11.47;;;6.97;;
8665;SDS011;4370;48.916;8.380;2024-01-30T07:45:14;8.80;;;5.73;;
8665;SDS011;4370;48.916;8.380;2024-01-30T07:47:40;11.23;;;6.43;;
8665;SDS011;4370;48.916;8.380;2024-01-30T07:50:07;7.90;;;5.50;;
8665;SDS011;4370;48.916;8.380;2024-01-30T07:52:33;7.67;;;5.37;;
8665;SDS011;4370;48.916;8.380;2024-01-30T07:54:59;9.10;;;6.07;;
8665;SDS011;4370;48.916;8.380;2024-01-30T07:57:25;9.27;;;5.93;;
8665;SDS011;4370;48.916;8.380;2024-01-30T07:59:51;8.47;;;6.20;;
8665;SDS011;4370;48.916;8.380;2024-01-30T08:02:17;9.17;;;6.10;;
8665;SDS011;4370;48.916;8.380;2024-01-30T08:04:43;8.67;;;5.63;;
8665;SDS011;4370;48.916;8.380;2024-01-30T08:07:13;11.43;;;6.23;;
8665;SDS011;4370;48.916;8.380;2024-01-30T08:09:39;9.23;;;6.10;;
8665;SDS011;4370;48.916;8.380;2024-01-30T08:12:05;16.43;;;7.57;;
8665;SDS011;4370;48.916;8.380;2024-01-30T08:14:31;11.03;;;6.53;;
8665;SDS011;4370;48.916;8.380;2024-01-30T08:16:57;8.87;;;6.20;;
8665;SDS011;4370;48.916;8.380;2024-01-30T08:19:23;10.23;;;6.70;;
8665;SDS011;4370;48.916;8.380;2024-01-30T08:21:49;8.67;;;5.50;;
8665;SDS011;4370;48.916;8.380;2024-01-30T08:24:14;8.77;;;6.27;;
8665;SDS011;4370;48.916;8.380;2024-01-30T08:26:40;12.00;;;6.53;;
8665;SDS011;4370;48.916;8.380;2024-01-30T08:29:06;9.80;;;6.70;;
8665;SDS011;4370;48.916;8.380;2024-01-30T08:31:32;10.17;;;7.17;;
8665;SDS011;4370;48.916;8.380;2024-01-30T08:33:58;12.27;;;8.13;;
8665;SDS011;4370;48.916;8.380;2024-01-30T08:36:24;9.37;;;7.20;;
8665;SDS011;4370;48.916;8.380;2024-01-30T08:38:50;12.47;;;7.37;;
8665;SDS011;4370;48.916;8.380;2024-01-30T08:41:16;10.03;;;6.80;;
8665;SDS011;4370;48.916;8.380;2024-01-30T08:43:42;11.23;;;6.90;;
8665;SDS011;4370;48.916;8.380;2024-01-30T08:46:09;16.70;;;8.40;;
8665;SDS011;4370;48.916;8.380;2024-01-30T08:48:35;15.63;;;9.20;;
8665;SDS011;4370;48.916;8.380;2024-01-30T08:51:01;13.97;;;9.80;;
8665;SDS011;4370;48.916;8.380;2024-01-30T08:53:27;15.73;;;9.87;;
8665;SDS011;4370;48.916;8.380;2024-01-30T08:55:53;13.63;;;9.77;;
8665;SDS011;4370;48.916;8.380;2024-01-30T08:58:19;19.03;;;10.80;;
8665;SDS011;4370;48.916;8.380;2024-01-30T09:00:45;16.50;;;10.20;;
8665;SDS011;4370;48.916;8.380;2024-01-30T09:03:11;15.70;;;9.83;;
8665;SDS011;4370;48.916;8.380;2024-01-30T09:05:37;14.43;;;9.63;;
8665;SDS011;4370;48.916;8.380;2024-01-30T09:08:03;14.93;;;10.30;;
8665;SDS011;4370;48.916;8.380;2024-01-30T09:10:29;17.80;;;10.40;;
8665;SDS011;4370;48.916;8.380;2024-01-30T09:12:55;17.60;;;9.83;;
8665;SDS011;4370;48.916;8.380;2024-01-30T09:15:21;16.07;;;9.90;;
8665;SDS011;4370;48.916;8.380;2024-01-30T09:17:47;15.77;;;9.57;;
8665;SDS011;4370;48.916;8.380;2024-01-30T09:20:13;14.17;;;9.60;;
8665;SDS011;4370;48.916;8.380;2024-01-30T09:22:39;14.47;;;9.17;;
8665;SDS011;4370;48.916;8.380;2024-01-30T09:25:05;14.20;;;9.00;;
8665;SDS011;4370;48.916;8.380;2024-01-30T09:27:31;14.03;;;8.97;;
8665;SDS011;4370;48.916;8.380;2024-01-30T09:29:57;15.30;;;8.90;;
8665;SDS011;4370;48.916;8.380;2024-01-30T09:32:23;12.97;;;9.00;;
8665;SDS011;4370;48.916;8.380;2024-01-30T09:34:49;13.90;;;9.00;;
8665;SDS011;4370;48.916;8.380;2024-01-30T09:37:15;12.50;;;8.67;;
8665;SDS011;4370;48.916;8.380;2024-01-30T09:39:43;10.73;;;7.87;;
8665;SDS011;4370;48.916;8.380;2024-01-30T09:44:36;12.07;;;8.13;;
8665;SDS011;4370;48.916;8.380;2024-01-30T09:47:03;11.77;;;8.30;;
8665;SDS011;4370;48.916;8.380;2024-01-30T09:49:34;14.50;;;8.13;;
8665;SDS011;4370;48.916;8.380;2024-01-30T09:52:01;9.40;;;6.80;;
8665;SDS011;4370;48.916;8.380;2024-01-30T09:54:29;8.60;;;6.77;;
8665;SDS011;4370;48.916;8.380;2024-01-30T09:56:56;10.23;;;6.50;;
8665;SDS011;4370;48.916;8.380;2024-01-30T09:59:22;9.20;;;6.87;;
8665;SDS011;4370;48.916;8.380;2024-01-30T10:01:48;11.97;;;6.97;;
8665;SDS011;4370;48.916;8.380;2024-01-30T10:04:14;10.90;;;7.90;;
8665;SDS011;4370;48.916;8.380;2024-01-30T10:06:40;11.37;;;8.17;;
8665;SDS011;4370;48.916;8.380;2024-01-30T10:09:06;13.87;;;8.73;;
8665;SDS011;4370;48.916;8.380;2024-01-30T10:11:32;11.03;;;8.13;;
8665;SDS011;4370;48.916;8.380;2024-01-30T10:13:58;12.17;;;8.27;;
8665;SDS011;4370;48.916;8.380;2024-01-30T10:16:24;11.67;;;8.50;;
8665;SDS011;4370;48.916;8.380;2024-01-30T10:18:50;11.77;;;8.43;;
8665;SDS011;4370;48.916;8.380;2024-01-30T10:21:16;11.73;;;8.23;;
8665;SDS011;4370;48.916;8.380;2024-01-30T10:23:43;11.03;;;7.30;;
8665;SDS011;4370;48.916;8.380;2024-01-30T10:26:09;11.67;;;7.70;;
8665;SDS011;4370;48.916;8.380;2024-01-30T10:28:35;14.90;;;7.40;;
8665;SDS011;4370;48.916;8.380;2024-01-30T10:31:01;13.27;;;7.83;;
8665;SDS011;4370;48.916;8.380;2024-01-30T10:33:30;10.00;;;7.27;;
8665;SDS011;4370;48.916;8.380;2024-01-30T10:35:59;10.03;;;6.47;;
8665;SDS011;4370;48.916;8.380;2024-01-30T10:38:27;10.37;;;6.50;;
8665;SDS011;4370;48.916;8.380;2024-01-30T10:40:56;11.57;;;7.80;;
8665;SDS011;4370;48.916;8.380;2024-01-30T10:43:22;11.77;;;7.63;;
8665;SDS011;4370;48.916;8.380;2024-01-30T10:45:49;11.37;;;7.60;;
8665;SDS011;4370;48.916;8.380;2024-01-30T10:48:18;10.70;;;7.40;;
8665;SDS011;4370;48.916;8.380;2024-01-30T10:50:44;10.07;;;7.00;;
8665;SDS011;4370;48.916;8.380;2024-01-30T10:53:11;9.07;;;6.67;;
8665;SDS011;4370;48.916;8.380;2024-01-30T10:55:38;12.37;;;7.37;;
8665;SDS011;4370;48.916;8.380;2024-01-30T10:58:04;10.50;;;7.90;;
8665;SDS011;4370;48.916;8.380;2024-01-30T11:00:30;9.07;;;7.00;;
8665;SDS011;4370;48.916;8.380;2024-01-30T11:02:58;10.77;;;7.43;;
8665;SDS011;4370;48.916;8.380;2024-01-30T11:05:24;10.87;;;7.43;;
8665;SDS011;4370;48.916;8.380;2024-01-30T11:07:54;11.30;;;8.03;;
8665;SDS011;4370;48.916;8.380;2024-01-30T11:10:20;10.73;;;7.40;;
8665;SDS011;4370;48.916;8.380;2024-01-30T11:12:46;8.80;;;6.87;;
8665;SDS011;4370;48.916;8.380;2024-01-30T11:15:13;8.97;;;6.97;;
8665;SDS011;4370;48.916;8.380;2024-01-30T11:17:40;10.73;;;6.73;;
8665;SDS011;4370;48.916;8.380;2024-01-30T11:20:09;12.23;;;7.07;;
8665;SDS011;4370;48.916;8.380;2024-01-30T11:22:36;9.50;;;6.83;;
8665;SDS011;4370;48.916;8.380;2024-01-30T11:25:02;12.73;;;7.53;;
8665;SDS011;4370;48.916;8.380;2024-01-30T11:27:30;9.73;;;7.27;;
8665;SDS011;4370;48.916;8.380;2024-01-30T11:30:01;9.63;;;6.77;;
8665;SDS011;4370;48.916;8.380;2024-01-30T11:32:27;9.37;;;6.60;;
8665;SDS011;4370;48.916;8.380;2024-01-30T11:34:54;11.10;;;7.20;;
8665;SDS011;4370;48.916;8.380;2024-01-30T11:37:20;10.97;;;7.13;;
8665;SDS011;4370;48.916;8.380;2024-01-30T11:39:49;11.47;;;6.67;;
8665;SDS011;4370;48.916;8.380;2024-01-30T11:42:16;9.73;;;6.07;;
8665;SDS011;4370;48.916;8.380;2024-01-30T11:44:46;10.40;;;6.33;;
8665;SDS011;4370;48.916;8.380;2024-01-30T11:47:12;7.60;;;5.50;;
8665;SDS011;4370;48.916;8.380;2024-01-30T11:49:38;9.57;;;6.73;;
8665;SDS011;4370;48.916;8.380;2024-01-30T11:52:04;10.17;;;6.03;;
8665;SDS011;4370;48.916;8.380;2024-01-30T11:54:31;11.10;;;6.03;;
8665;SDS011;4370;48.916;8.380;2024-01-30T11:56:57;9.80;;;6.03;;
8665;SDS011;4370;48.916;8.380;2024-01-30T11:59:23;14.33;;;5.97;;
8665;SDS011;4370;48.916;8.380;2024-01-30T12:01:51;9.80;;;5.90;;
8665;SDS011;4370;48.916;8.380;2024-01-30T12:04:17;9.00;;;6.03;;
8665;SDS011;4370;48.916;8.380;2024-01-30T12:06:43;7.50;;;5.93;;
8665;SDS011;4370;48.916;8.380;2024-01-30T12:09:09;7.50;;;5.87;;
8665;SDS011;4370;48.916;8.380;2024-01-30T12:11:44;7.27;;;5.70;;
8665;SDS011;4370;48.916;8.380;2024-01-30T12:14:11;9.07;;;5.83;;
8665;SDS011;4370;48.916;8.380;2024-01-30T12:16:37;7.93;;;5.80;;
8665;SDS011;4370;48.916;8.380;2024-01-30T12:19:03;12.20;;;6.80;;
8665;SDS011;4370;48.916;8.380;2024-01-30T12:21:29;7.17;;;5.80;;
8665;SDS011;4370;48.916;8.380;2024-01-30T12:23:58;8.37;;;5.87;;
8665;SDS011;4370;48.916;8.380;2024-01-30T12:26:25;7.40;;;5.60;;
8665;SDS011;4370;48.916;8.380;2024-01-30T12:28:53;13.10;;;7.03;;
8665;SDS011;4370;48.916;8.380;2024-01-30T12:31:26;8.93;;;6.23;;
8665;SDS011;4370;48.916;8.380;2024-01-30T12:33:52;8.73;;;6.30;;
8665;SDS011;4370;48.916;8.380;2024-01-30T12:36:19;8.20;;;6.40;;
8665;SDS011;4370;48.916;8.380;2024-01-30T12:38:45;9.00;;;6.03;;
8665;SDS011;4370;48.916;8.380;2024-01-30T12:41:11;8.77;;;5.80;;
8665;SDS011;4370;48.916;8.380;2024-01-30T12:43:37;7.47;;;5.97;;
8665;SDS011;4370;48.916;8.380;2024-01-30T12:46:03;7.27;;;5.40;;
8665;SDS011;4370;48.916;8.380;2024-01-30T12:48:29;8.90;;;6.20;;
8665;SDS011;4370;48.916;8.380;2024-01-30T12:50:55;8.17;;;5.77;;
8665;SDS011;4370;48.916;8.380;2024-01-30T12:53:21;8.47;;;6.20;;
8665;SDS011;4370;48.916;8.380;2024-01-30T12:55:47;9.73;;;6.37;;
8665;SDS011;4370;48.916;8.380;2024-01-30T12:58:14;8.43;;;5.43;;
8665;SDS011;4370;48.916;8.380;2024-01-30T13:00:40;9.30;;;6.73;;
8665;SDS011;4370;48.916;8.380;2024-01-30T13:03:08;11.10;;;6.57;;
8665;SDS011;4370;48.916;8.380;2024-01-30T13:05:34;11.13;;;6.50;;
8665;SDS011;4370;48.916;8.380;2024-01-30T13:08:00;8.70;;;6.70;;
8665;SDS011;4370;48.916;8.380;2024-01-30T13:10:26;9.63;;;6.87;;
8665;SDS011;4370;48.916;8.380;2024-01-30T13:12:52;8.93;;;7.07;;
8665;SDS011;4370;48.916;8.380;2024-01-30T13:15:18;9.90;;;6.63;;
8665;SDS011;4370;48.916;8.380;2024-01-30T13:17:44;9.63;;;6.50;;
8665;SDS011;4370;48.916;8.380;2024-01-30T13:20:13;11.67;;;7.00;;
8665;SDS011;4370;48.916;8.380;2024-01-30T13:22:44;10.77;;;7.50;;
8665;SDS011;4370;48.916;8.380;2024-01-30T13:25:11;9.37;;;7.00;;
8665;SDS011;4370;48.916;8.380;2024-01-30T13:27:37;12.17;;;7.43;;
8665;SDS011;4370;48.916;8.380;2024-01-30T13:30:03;10.13;;;7.20;;
8665;SDS011;4370;48.916;8.380;2024-01-30T13:32:29;10.67;;;7.87;;
8665;SDS011;4370;48.916;8.380;2024-01-30T13:34:55;10.27;;;7.00;;
8665;SDS011;4370;48.916;8.380;2024-01-30T13:37:22;10.33;;;6.87;;
8665;SDS011;4370;48.916;8.380;2024-01-30T13:39:48;10.97;;;7.17;;
8665;SDS011;4370;48.916;8.380;2024-01-30T13:42:14;8.73;;;6.93;;
8665;SDS011;4370;48.916;8.380;2024-01-30T13:44:40;11.43;;;7.47;;
8665;SDS011;4370;48.916;8.380;2024-01-30T13:47:08;11.10;;;7.00;;
8665;SDS011;4370;48.916;8.380;2024-01-30T13:49:34;8.70;;;6.77;;
8665;SDS011;4370;48.916;8.380;2024-01-30T13:52:00;10.03;;;7.00;;
8665;SDS011;4370;48.916;8.380;2024-01-30T13:54:26;10.53;;;7.07;;
8665;SDS011;4370;48.916;8.380;2024-01-30T13:56:52;10.93;;;6.70;;
8665;SDS011;4370;48.916;8.380;2024-01-30T13:59:18;9.47;;;7.13;;
8665;SDS011;4370;48.916;8.380;2024-01-30T14:01:48;10.97;;;7.13;;
8665;SDS011;4370;48.916;8.380;2024-01-30T14:04:15;10.97;;;7.43;;
8665;SDS011;4370;48.916;8.380;2024-01-30T14:06:40;10.77;;;7.90;;
8665;SDS011;4370;48.916;8.380;2024-01-30T14:09:07;11.80;;;7.70;;
8665;SDS011;4370;48.916;8.380;2024-01-30T14:11:33;10.00;;;7.43;;
8665;SDS011;4370;48.916;8.380;2024-01-30T14:13:59;10.30;;;7.40;;
8665;SDS011;4370;48.916;8.380;2024-01-30T14:16:25;11.60;;;7.80;;
8665;SDS011;4370;48.916;8.380;2024-01-30T14:18:51;15.27;;;9.40;;
8665;SDS011;4370;48.916;8.380;2024-01-30T14:21:19;10.83;;;8.23;;
8665;SDS011;4370;48.916;8.380;2024-01-30T14:23:45;12.67;;;7.40;;
8665;SDS011;4370;48.916;8.380;2024-01-30T14:26:12;12.23;;;8.10;;
8665;SDS011;4370;48.916;8.380;2024-01-30T14:28:38;10.80;;;7.23;;
8665;SDS011;4370;48.916;8.380;2024-01-30T14:31:04;13.30;;;6.43;;
8665;SDS011;4370;48.916;8.380;2024-01-30T14:33:30;10.63;;;6.87;;
8665;SDS011;4370;48.916;8.380;2024-01-30T14:35:56;9.17;;;7.07;;
8665;SDS011;4370;48.916;8.380;2024-01-30T14:38:22;8.20;;;6.20;;
8665;SDS011;4370;48.916;8.380;2024-01-30T14:40:50;7.87;;;6.73;;
8665;SDS011;4370;48.916;8.380;2024-01-30T14:43:16;8.77;;;6.40;;
8665;SDS011;4370;48.916;8.380;2024-01-30T14:45:41;7.80;;;6.40;;
8665;SDS011;4370;48.916;8.380;2024-01-30T14:48:09;8.97;;;6.80;;
8665;SDS011;4370;48.916;8.380;2024-01-30T14:50:35;9.23;;;6.43;;
8665;SDS011;4370;48.916;8.380;2024-01-30T14:53:01;11.10;;;6.60;;
8665;SDS011;4370;48.916;8.380;2024-01-30T14:55:27;9.67;;;6.97;;
8665;SDS011;4370;48.916;8.380;2024-01-30T14:57:53;8.33;;;6.00;;
8665;SDS011;4370;48.916;8.380;2024-01-30T15:00:19;9.87;;;6.30;;
8665;SDS011;4370;48.916;8.380;2024-01-30T15:02:45;11.07;;;6.07;;
8665;SDS011;4370;48.916;8.380;2024-01-30T15:05:11;7.73;;;6.00;;
8665;SDS011;4370;48.916;8.380;2024-01-30T15:07:37;7.97;;;5.60;;